Terminal Aerodrome Forecast
Issued by NWS

Home | Current Version | Previous Version | Text Only | Print | Product List | Glossary Off
Versions: 1 2 3 4 5 6 7 8 9 10 11 12 13 14 15 16 17

000
FTUS43 KMPX 281131 CCA
TAFRWF
TAF COR
KRWF 281131Z 2812/2912 18012G18KT 5SM -TSRA BR BKN050CB
      TEMPO 2812/2813 2SM TSRA OVC015CB
     FM281400 18016G23KT 6SM -SHRA BR OVC025
     FM281600 19018G25KT P6SM SCT030 BKN040
     FM282200 25015G23KT P6SM BKN045
     FM290200 26014G20KT P6SM SCT250=

USA.gov is the U.S. government's official web portal to all federal, state and local government web resources and services.